Time;durP1;ratioP1;P1;durP2;ratioP2;P2;SDS_P1;SDS_P2;PMS_P1;PMS_P2;Temp;Humidity;BMP_temperature;BMP_pressure;BME280_temperature;BME280_humidity;BME280_pressure;Samples;Min_cycle;Max_cycle;Signal;HPM_P1;HPM_P2
2024/04/16 00:00:17;;;;;;;1.58;0.80;;;;;;;6.35;58.17;98915.38;11321638;26;20082;-61
2024/04/16 00:05:20;;;;;;;1.63;0.60;;;;;;;6.21;58.34;98909.28;11319074;26;20937;-62
2024/04/16 00:10:23;;;;;;;1.00;0.90;;;;;;;6.17;59.46;98920.78;11314404;26;20013;-61
2024/04/16 00:15:25;;;;;;;2.42;0.70;;;;;;;6.18;58.69;98897.34;11319900;26;20451;-61
2024/04/16 00:20:29;;;;;;;4.93;0.93;;;;;;;6.38;58.15;98893.59;11317839;26;20018;-61
2024/04/16 00:25:32;;;;;;;1.30;0.82;;;;;;;6.44;58.39;98885.44;11320453;26;20002;-62
2024/04/16 00:30:34;;;;;;;4.07;0.95;;;;;;;6.45;58.35;98886.28;11317679;26;20017;-61
2024/04/16 00:35:37;;;;;;;10.10;1.45;;;;;;;6.40;58.49;98885.72;11318224;26;20462;-61
2024/04/16 00:40:39;;;;;;;0.52;0.50;;;;;;;6.38;58.62;98882.38;11318256;26;20323;-61
2024/04/16 00:45:54;;;;;;;1.45;0.70;;;;;;;6.27;59.03;98876.06;11316826;26;20073;-61
2024/04/16 00:50:58;;;;;;;1.98;0.70;;;;;;;6.20;58.54;98879.91;11314011;26;20449;-61
2024/04/16 00:56:01;;;;;;;1.80;0.80;;;;;;;6.22;59.16;98870.28;11320027;26;20507;-61
2024/04/16 01:01:03;;;;;;;1.15;0.70;;;;;;;6.21;59.08;98866.00;11318842;26;20023;-61
2024/04/16 01:06:06;;;;;;;1.10;0.60;;;;;;;6.20;58.56;98863.50;11316859;26;20016;-61
2024/04/16 01:11:09;;;;;;;0.45;0.45;;;;;;;6.19;58.68;98854.03;11317208;26;20021;-61
2024/04/16 01:16:11;;;;;;;1.65;0.75;;;;;;;6.28;58.20;98849.19;11285438;26;20490;-61
2024/04/16 01:21:15;;;;;;;1.17;0.70;;;;;;;6.26;58.31;98860.56;11315520;26;20002;-62
2024/04/16 01:26:17;;;;;;;1.85;0.85;;;;;;;6.25;58.32;98845.91;11319720;26;20072;-61
2024/04/16 01:31:22;;;;;;;1.15;0.60;;;;;;;6.09;57.96;98845.94;11316921;26;20039;-61
2024/04/16 01:36:25;;;;;;;1.42;0.57;;;;;;;5.85;58.37;98836.16;11318946;26;20006;-61
2024/04/16 01:41:28;;;;;;;1.17;0.47;;;;;;;5.86;58.60;98840.44;11316788;26;20002;-61
2024/04/16 01:46:31;;;;;;;0.52;0.47;;;;;;;5.91;58.40;98841.00;11319114;26;20573;-61
2024/04/16 01:51:33;;;;;;;0.32;0.32;;;;;;;5.89;58.30;98835.91;11316699;26;20039;-61
2024/04/16 01:56:36;;;;;;;2.08;0.57;;;;;;;5.74;58.06;98838.56;11316393;26;20002;-61
2024/04/16 02:01:39;;;;;;;0.77;0.50;;;;;;;5.56;58.42;98840.41;11316219;26;20436;-61
2024/04/16 02:06:42;;;;;;;0.63;0.50;;;;;;;5.37;58.77;98839.81;11316381;26;20013;-61
2024/04/16 02:11:45;;;;;;;0.98;0.70;;;;;;;5.32;58.79;98852.16;11315516;26;20600;-61
2024/04/16 02:16:47;;;;;;;1.63;0.77;;;;;;;5.33;58.84;98859.03;11314174;26;20078;-61
2024/04/16 02:21:50;;;;;;;2.83;0.50;;;;;;;5.61;58.30;98842.75;11315654;26;20002;-61
2024/04/16 02:26:53;;;;;;;1.08;0.70;;;;;;;5.43;58.96;98829.91;11315932;26;20448;-62
2024/04/16 02:31:55;;;;;;;0.70;0.60;;;;;;;5.44;59.18;98808.25;11315499;26;19994;-62
2024/04/16 02:36:58;;;;;;;2.10;0.63;;;;;;;5.47;58.88;98818.44;11322540;26;20069;-62
2024/04/16 02:42:01;;;;;;;0.90;0.73;;;;;;;5.55;58.20;98805.88;11317485;26;19998;-62
2024/04/16 02:47:03;;;;;;;0.63;0.63;;;;;;;5.41;58.59;98798.03;11323918;26;19998;-61
2024/04/16 02:52:07;;;;;;;2.83;0.73;;;;;;;5.31;59.08;98798.66;11322674;26;20002;-62
2024/04/16 02:57:10;;;;;;;4.40;1.38;;;;;;;5.17;58.71;98795.97;11323402;26;20020;-62
2024/04/16 03:02:12;;;;;;;1.60;0.90;;;;;;;4.98;59.29;98796.19;11322638;26;20826;-61
2024/04/16 03:07:15;;;;;;;4.88;1.35;;;;;;;4.93;59.43;98797.34;11319921;26;20002;-61
2024/04/16 03:12:18;;;;;;;3.35;1.38;;;;;;;4.82;59.40;98790.16;11322967;26;19998;-61
2024/04/16 03:17:21;;;;;;;1.30;1.00;;;;;;;4.73;59.60;98775.13;11321119;26;20040;-61
2024/04/16 03:22:24;;;;;;;2.13;0.70;;;;;;;4.72;59.77;98758.75;11322234;26;20045;-61
2024/04/16 03:27:27;;;;;;;0.70;0.70;;;;;;;4.70;59.35;98776.13;11321073;26;20124;-61
2024/04/16 03:32:29;;;;;;;1.55;0.93;;;;;;;4.64;59.85;98786.81;11320649;26;19998;-61
2024/04/16 03:37:32;;;;;;;1.92;1.13;;;;;;;4.64;60.18;98780.78;11321768;26;19998;-61
2024/04/16 03:42:38;;;;;;;1.73;0.82;;;;;;;4.62;59.44;98780.88;11322765;26;20002;-61
2024/04/16 03:47:41;;;;;;;1.42;0.80;;;;;;;4.61;60.21;98784.41;11319931;26;19994;-61
2024/04/16 03:52:43;;;;;;;0.65;0.52;;;;;;;4.61;59.46;98780.97;11320672;26;20006;-60
2024/04/16 03:57:46;;;;;;;0.55;0.55;;;;;;;4.61;59.67;98779.22;11315550;26;20078;-60
2024/04/16 04:02:49;;;;;;;2.03;0.82;;;;;;;4.64;59.39;98780.78;11313721;26;20104;-60
2024/04/16 04:07:51;;;;;;;1.02;0.60;;;;;;;4.58;59.96;98771.59;11320619;26;20026;-60
2024/04/16 04:12:54;;;;;;;0.60;0.60;;;;;;;4.51;59.71;98769.44;11320355;26;20444;-60
2024/04/16 04:17:57;;;;;;;1.13;0.75;;;;;;;4.52;59.61;98766.75;11318944;26;20066;-61
2024/04/16 04:23:00;;;;;;;4.00;1.77;;;;;;;4.61;59.30;98755.06;11320842;26;20038;-60
2024/04/16 04:28:02;;;;;;;3.55;1.58;;;;;;;4.68;59.18;98740.88;11313008;26;20346;-60
2024/04/16 04:33:05;;;;;;;3.47;1.05;;;;;;;4.78;59.58;98746.41;11317468;26;19994;-60
2024/04/16 04:38:08;;;;;;;3.60;1.80;;;;;;;4.97;59.08;98750.47;11319470;26;20002;-60
2024/04/16 04:43:10;;;;;;;2.35;1.60;;;;;;;5.20;58.67;98759.53;11314075;26;20066;-60
2024/04/16 04:48:13;;;;;;;1.65;0.82;;;;;;;5.45;58.32;98757.22;11318326;26;20634;-60
2024/04/16 04:53:17;;;;;;;0.98;0.82;;;;;;;5.51;58.25;98739.53;11316617;26;20013;-60
2024/04/16 04:58:20;;;;;;;2.00;0.80;;;;;;;5.52;58.41;98735.19;11311944;26;20013;-60
2024/04/16 05:03:23;;;;;;;2.67;0.90;;;;;;;5.65;58.21;98728.38;11318602;26;20005;-60
2024/04/16 05:08:28;;;;;;;3.35;1.35;;;;;;;5.81;58.29;98726.53;11319559;26;20017;-60
2024/04/16 05:13:31;;;;;;;3.35;1.25;;;;;;;6.08;57.54;98719.69;11320539;26;20013;-61
2024/04/16 05:18:34;;;;;;;2.85;1.00;;;;;;;6.10;57.33;98733.41;11294294;26;20657;-60
2024/04/16 05:23:37;;;;;;;1.50;0.80;;;;;;;6.24;57.38;98717.84;11312641;26;20021;-60
2024/04/16 05:28:39;;;;;;;2.53;1.23;;;;;;;6.28;56.91;98721.13;11316282;26;20166;-61
2024/04/16 05:33:42;;;;;;;1.80;0.90;;;;;;;6.41;57.10;98721.19;11318984;26;20378;-60
2024/04/16 05:38:45;;;;;;;2.53;0.80;;;;;;;6.31;57.39;98721.75;11318387;26;20469;-61
2024/04/16 05:43:47;;;;;;;3.40;0.95;;;;;;;6.19;57.93;98730.25;11285924;26;19997;-60
2024/04/16 05:48:50;;;;;;;4.03;0.90;;;;;;;6.21;58.44;98715.41;11286597;26;20013;-61
2024/04/16 05:53:53;;;;;;;0.98;0.77;;;;;;;6.22;58.24;98718.88;11315343;26;20020;-61
2024/04/16 05:58:55;;;;;;;4.32;1.83;;;;;;;6.43;58.02;98724.53;11318272;26;20018;-60
2024/04/16 06:03:59;;;;;;;0.85;0.70;;;;;;;6.83;57.86;98715.91;11312300;26;19999;-61
2024/04/16 06:09:04;;;;;;;1.45;1.00;;;;;;;6.81;57.40;98705.59;11321579;26;20450;-60
2024/04/16 06:14:06;;;;;;;4.85;1.00;;;;;;;6.62;58.41;98709.44;11324530;26;20006;-60
2024/04/16 06:19:09;;;;;;;4.00;1.00;;;;;;;6.83;57.89;98721.09;11322705;26;19998;-60
2024/04/16 06:24:11;;;;;;;1.60;0.98;;;;;;;7.08;57.29;98700.41;11353484;26;19998;-61
2024/04/16 06:29:14;;;;;;;2.50;1.05;;;;;;;7.28;56.84;98694.72;11324979;26;20002;-60
2024/04/16 06:34:16;;;;;;;6.53;1.80;;;;;;;7.74;56.07;98685.50;11323199;26;20018;-61
2024/04/16 06:39:19;;;;;;;2.42;1.15;;;;;;;7.79;55.15;98670.41;11322061;26;19998;-60
2024/04/16 06:44:22;;;;;;;1.75;0.98;;;;;;;7.58;55.68;98661.47;11321731;26;19994;-60
2024/04/16 06:49:24;;;;;;;4.53;1.45;;;;;;;7.86;54.94;98645.63;11322381;26;20030;-60
2024/04/16 06:54:27;;;;;;;2.55;1.20;;;;;;;8.38;54.63;98640.25;11321120;26;20006;-61
2024/04/16 06:59:30;;;;;;;1.30;0.88;;;;;;;8.59;53.64;98609.19;11323743;26;20002;-60
2024/04/16 07:04:32;;;;;;;1.88;0.95;;;;;;;9.12;52.45;98615.69;11322581;26;19998;-61
2024/04/16 07:09:35;;;;;;;0.82;0.70;;;;;;;8.93;52.46;98612.78;11319250;26;19998;-61
2024/04/16 07:14:37;;;;;;;2.33;0.88;;;;;;;9.16;52.01;98615.34;11316538;26;20006;-61
2024/04/16 07:19:40;;;;;;;0.60;0.60;;;;;;;9.19;51.67;98625.56;11321041;26;19994;-60
2024/04/16 07:24:43;;;;;;;5.20;1.45;;;;;;;9.43;51.68;98597.63;11321061;26;19994;-60
2024/04/16 07:29:46;;;;;;;1.90;0.85;;;;;;;9.08;51.45;98581.19;11319495;26;19994;-60
2024/04/16 07:34:48;;;;;;;1.52;0.90;;;;;;;8.98;51.70;98580.19;11322198;26;20009;-60
2024/04/16 07:39:51;;;;;;;2.30;0.70;;;;;;;9.16;51.20;98572.78;11321747;26;19998;-61
2024/04/16 07:44:54;;;;;;;2.30;0.70;;;;;;;9.05;51.02;98544.06;11320689;26;19998;-60
2024/04/16 07:49:56;;;;;;;2.90;1.33;;;;;;;8.83;51.57;98558.72;11322391;26;20483;-61
2024/04/16 07:54:59;;;;;;;2.78;1.00;;;;;;;8.64;51.90;98570.63;11320790;26;19999;-61
2024/04/16 08:00:02;;;;;;;1.70;0.77;;;;;;;8.50;52.32;98578.59;11320728;26;20256;-61
2024/04/16 08:05:12;;;;;;;;;;;;;;;7.98;54.07;98571.03;11323221;26;20698;-60
2024/04/16 08:10:15;;;;;;;2.60;1.40;;;;;;;7.88;54.54;98573.47;11313062;26;19949;-61
2024/04/16 08:15:17;;;;;;;7.97;2.03;;;;;;;7.72;55.44;98569.44;11321442;26;20070;-61
2024/04/16 08:20:20;;;;;;;1.33;0.90;;;;;;;7.34;56.86;98563.44;11317888;26;20341;-61
2024/04/16 08:25:23;;;;;;;1.60;0.88;;;;;;;7.02;58.78;98553.44;11320105;26;20457;-61
2024/04/16 08:30:25;;;;;;;2.60;0.90;;;;;;;6.90;58.73;98536.06;11288312;26;20002;-60
2024/04/16 08:35:29;;;;;;;1.02;0.80;;;;;;;6.89;58.52;98511.03;11319034;26;20038;-60
2024/04/16 08:40:36;;;;;;;1.02;1.00;;;;;;;7.23;58.25;98519.97;11315581;26;20050;-61
2024/04/16 08:45:43;;;;;;;1.65;0.63;;;;;;;7.07;59.99;98472.56;11319966;26;19994;-60
2024/04/16 08:50:46;;;;;;;0.77;0.65;;;;;;;6.86;60.02;98534.63;11318913;26;19998;-60
2024/04/16 08:55:49;;;;;;;0.57;0.57;;;;;;;6.69;60.09;98552.28;11320499;26;20021;-60
2024/04/16 09:00:58;;;;;;;4.72;0.57;;;;;;;6.97;59.86;98549.50;11320378;26;20016;-61
2024/04/16 09:06:00;;;;;;;0.63;0.40;;;;;;;6.67;61.22;98562.78;11317085;26;20006;-61
2024/04/16 09:11:03;;;;;;;1.13;0.70;;;;;;;6.69;60.78;98531.47;11314870;26;20073;-61
2024/04/16 09:16:06;;;;;;;0.25;0.25;;;;;;;6.66;61.37;98545.50;11318512;26;20009;-61
2024/04/16 09:21:10;;;;;;;1.02;0.70;;;;;;;7.00;61.45;98531.94;11318042;26;20637;-61
2024/04/16 09:26:13;;;;;;;0.40;0.40;;;;;;;7.46;60.59;98536.59;11319432;26;19998;-61
2024/04/16 09:31:17;;;;;;;0.32;0.30;;;;;;;7.44;60.74;98554.91;11312155;26;20002;-61
2024/04/16 09:36:20;;;;;;;0.45;0.40;;;;;;;7.23;61.09;98547.72;11318430;26;20013;-61
2024/04/16 09:41:22;;;;;;;1.08;0.40;;;;;;;7.38;61.28;98526.72;11317098;26;20112;-61
2024/04/16 09:46:27;;;;;;;0.30;0.30;;;;;;;7.56;60.87;98537.63;11333148;26;20017;-61
2024/04/16 09:51:30;;;;;;;0.57;0.50;;;;;;;7.52;60.82;98528.38;11332849;26;20347;-61
2024/04/16 09:56:33;;;;;;;0.40;0.40;;;;;;;7.64;61.13;98530.13;11299787;26;20443;-61
2024/04/16 10:01:38;;;;;;;0.40;0.40;;;;;;;8.01;60.63;98537.84;11333512;26;20006;-61
2024/04/16 10:06:41;;;;;;;0.75;0.55;;;;;;;8.08;60.52;98524.38;11334695;26;20057;-61
2024/04/16 10:11:49;;;;;;;0.40;0.40;;;;;;;8.44;59.99;98511.31;11302832;26;20002;-61
2024/04/16 10:16:53;;;;;;;0.65;0.63;;;;;;;9.06;59.09;98515.25;11303872;26;20019;-61
2024/04/16 10:22:01;;;;;;;0.30;0.30;;;;;;;9.74;57.92;98494.31;11302444;26;19998;-61
2024/04/16 10:27:09;;;;;;;0.57;0.47;;;;;;;10.02;57.90;98496.38;11333920;26;20013;-61
2024/04/16 10:32:12;;;;;;;0.35;0.35;;;;;;;10.26;57.68;98477.91;11333925;26;20013;-61
2024/04/16 10:37:19;;;;;;;1.55;0.88;;;;;;;10.47;56.95;98482.22;11302947;26;20014;-61
2024/04/16 10:42:28;;;;;;;0.50;0.50;;;;;;;10.39;57.05;98483.78;11333219;26;20009;-61
2024/04/16 10:47:31;;;;;;;0.30;0.30;;;;;;;10.42;56.88;98492.19;11332689;26;20002;-61
2024/04/16 10:52:34;;;;;;;0.40;0.40;;;;;;;10.23;57.56;98493.84;11330904;26;20010;-61
2024/04/16 10:57:41;;;;;;;0.52;0.50;;;;;;;9.88;57.84;98481.00;11319724;26;20043;-61
2024/04/16 11:02:45;;;;;;;0.30;0.30;;;;;;;10.23;57.71;98481.59;11323585;26;20009;-61
2024/04/16 11:07:48;;;;;;;0.90;0.60;;;;;;;10.46;57.29;98464.06;11323911;26;20002;-61
2024/04/16 11:12:50;;;;;;;0.40;0.40;;;;;;;10.49;57.01;98474.25;11323474;26;20009;-61
2024/04/16 11:17:56;;;;;;;0.75;0.50;;;;;;;10.55;56.75;98496.41;11324473;26;20002;-61
2024/04/16 11:23:00;;;;;;;0.38;0.38;;;;;;;10.41;57.55;98492.34;11322611;26;19999;-61
2024/04/16 11:28:03;;;;;;;0.47;0.38;;;;;;;10.61;57.64;98504.59;11319243;26;20147;-60
2024/04/16 11:33:05;;;;;;;0.50;0.50;;;;;;;10.94;57.15;98474.81;11322819;26;19998;-60
2024/04/16 11:38:21;;;;;;;0.32;0.32;;;;;;;10.71;58.28;98502.03;11323712;26;20078;-61
2024/04/16 11:43:31;;;;;;;0.80;0.50;;;;;;;10.42;59.28;98489.59;11316429;26;20256;-60
2024/04/16 11:48:35;;;;;;;0.40;0.40;;;;;;;10.79;57.97;98476.09;11323206;26;20082;-60
2024/04/16 11:53:38;;;;;;;0.35;0.35;;;;;;;10.74;58.21;98479.09;11320576;26;20005;-60
2024/04/16 11:58:43;;;;;;;0.60;0.60;;;;;;;10.90;57.95;98483.88;11310224;26;20083;-60
2024/04/16 12:03:47;;;;;;;0.40;0.40;;;;;;;10.95;57.52;98479.91;11314551;26;20009;-61
2024/04/16 12:08:50;;;;;;;0.50;0.50;;;;;;;11.10;57.08;98481.28;11320606;26;20006;-61
2024/04/16 12:13:54;;;;;;;0.63;0.60;;;;;;;11.29;56.17;98476.13;11318589;26;19998;-61
2024/04/16 12:18:57;;;;;;;0.50;0.38;;;;;;;10.99;55.73;98478.69;11313813;26;20006;-60
2024/04/16 12:24:00;;;;;;;1.10;0.70;;;;;;;11.36;55.53;98470.38;11320195;26;20416;-60
2024/04/16 12:29:04;;;;;;;1.00;0.50;;;;;;;11.21;55.88;98483.78;11321269;26;20009;-61
2024/04/16 12:34:07;;;;;;;1.80;0.70;;;;;;;11.25;54.58;98485.19;11322047;26;20017;-60
2024/04/16 12:39:11;;;;;;;0.68;0.65;;;;;;;11.58;54.68;98472.81;11290323;26;20350;-60
2024/04/16 12:44:13;;;;;;;0.63;0.57;;;;;;;12.10;53.41;98493.47;11318103;26;20002;-61
2024/04/16 12:49:16;;;;;;;1.58;1.42;;;;;;;12.16;52.25;98487.66;11319704;26;20783;-60
2024/04/16 12:54:19;;;;;;;0.75;0.40;;;;;;;11.90;52.45;98481.28;11318582;26;20029;-60
2024/04/16 12:59:22;;;;;;;0.50;0.40;;;;;;;11.98;52.58;98484.91;11321722;26;20020;-61
2024/04/16 13:04:24;;;;;;;0.93;0.50;;;;;;;11.90;51.98;98497.84;11318819;26;20009;-61
2024/04/16 13:09:27;;;;;;;0.73;0.50;;;;;;;11.68;51.93;98528.66;11319950;26;20113;-61
2024/04/16 13:14:30;;;;;;;0.35;0.35;;;;;;;11.01;52.96;98567.53;11318653;26;20341;-60
2024/04/16 13:19:32;;;;;;;0.77;0.45;;;;;;;9.45;54.22;98616.59;11316531;26;20045;-60
2024/04/16 13:24:35;;;;;;;0.32;0.28;;;;;;;8.61;56.42;98622.94;11318961;26;20006;-60
2024/04/16 13:29:38;;;;;;;0.30;0.30;;;;;;;7.92;58.57;98636.56;11310380;26;20013;-61
2024/04/16 13:34:42;;;;;;;0.30;0.25;;;;;;;7.73;59.56;98644.78;11315151;26;20144;-60
2024/04/16 13:39:46;;;;;;;0.45;0.45;;;;;;;7.98;58.63;98642.16;11315631;26;19998;-60
2024/04/16 13:44:50;;;;;;;0.60;0.50;;;;;;;8.19;59.08;98623.41;11314727;26;20002;-62
2024/04/16 13:49:53;;;;;;;1.70;0.40;;;;;;;8.97;58.56;98629.88;11314831;26;19994;-60
2024/04/16 13:54:56;;;;;;;0.43;0.43;;;;;;;9.16;58.53;98638.81;11316305;26;20753;-61
2024/04/16 13:59:59;;;;;;;0.50;0.50;;;;;;;9.29;58.24;98644.78;11314267;26;20006;-60
2024/04/16 14:05:13;;;;;;;0.35;0.35;;;;;;;9.62;58.78;98629.22;11312736;26;20018;-60
2024/04/16 14:10:16;;;;;;;2.33;0.52;;;;;;;9.82;58.60;98639.91;11318294;26;20077;-60
2024/04/16 14:15:19;;;;;;;2.10;0.90;;;;;;;10.09;58.13;98635.19;11316752;26;20024;-60
2024/04/16 14:20:25;;;;;;;0.68;0.52;;;;;;;10.16;58.67;98655.47;11286326;26;20013;-62
2024/04/16 14:25:28;;;;;;;0.50;0.50;;;;;;;9.83;59.55;98655.47;11283491;26;20222;-61
2024/04/16 14:30:31;;;;;;;0.70;0.70;;;;;;;9.91;59.10;98673.97;11314026;26;19998;-61
2024/04/16 14:35:33;;;;;;;0.95;0.40;;;;;;;10.03;58.56;98657.38;11316922;26;20003;-62
2024/04/16 14:40:36;;;;;;;0.60;0.50;;;;;;;10.25;58.17;98661.75;11319476;26;20026;-61
2024/04/16 14:45:39;;;;;;;0.40;0.40;;;;;;;10.37;57.79;98658.19;11320068;26;20548;-61
2024/04/16 14:50:42;;;;;;;0.20;0.20;;;;;;;10.39;58.07;98682.41;11318314;26;20002;-61
2024/04/16 14:55:49;;;;;;;0.40;0.40;;;;;;;10.38;57.80;98675.50;11324374;26;20863;-61
2024/04/16 15:00:56;;;;;;;0.47;0.47;;;;;;;10.47;57.56;98674.78;11318165;26;20006;-61
2024/04/16 15:06:00;;;;;;;1.90;0.57;;;;;;;10.58;57.00;98693.09;11317382;26;20067;-61
2024/04/16 15:11:08;;;;;;;0.50;0.50;;;;;;;10.58;56.64;98687.88;11317733;26;20009;-62
2024/04/16 15:16:15;;;;;;;0.47;0.47;;;;;;;10.47;57.00;98698.31;11313431;26;20014;-62
2024/04/16 15:21:18;;;;;;;0.57;0.50;;;;;;;10.37;57.28;98713.06;11320203;26;20006;-61
2024/04/16 15:26:20;;;;;;;0.80;0.50;;;;;;;10.39;56.72;98724.22;11316294;26;20009;-61
2024/04/16 15:31:23;;;;;;;0.82;0.60;;;;;;;10.65;56.69;98736.09;11313125;26;20006;-60
2024/04/16 15:36:26;;;;;;;0.60;0.60;;;;;;;10.98;56.28;98728.19;11318665;26;19994;-61
2024/04/16 15:41:29;;;;;;;0.40;0.40;;;;;;;11.05;56.37;98739.84;11313044;26;20310;-61
2024/04/16 15:46:35;;;;;;;0.88;0.55;;;;;;;10.89;56.42;98754.25;11316300;26;20422;-61
2024/04/16 15:51:37;;;;;;;1.67;0.80;;;;;;;11.07;56.34;98764.09;11319922;26;20652;-61
2024/04/16 15:56:40;;;;;;;0.20;0.20;;;;;;;10.96;55.55;98756.25;11320918;26;20095;-60
2024/04/16 16:01:43;;;;;;;0.88;0.50;;;;;;;11.00;54.81;98780.38;11319733;26;20006;-61
2024/04/16 16:06:46;;;;;;;0.45;0.22;;;;;;;10.91;54.83;98788.97;11317592;26;20022;-61
2024/04/16 16:11:49;;;;;;;0.65;0.65;;;;;;;10.85;55.07;98805.13;11313226;26;20010;-61
2024/04/16 16:16:52;;;;;;;0.80;0.50;;;;;;;10.54;54.89;98811.09;11319471;26;20013;-61
2024/04/16 16:21:57;;;;;;;3.10;0.85;;;;;;;10.16;55.88;98822.69;11281653;26;20038;-61
2024/04/16 16:26:59;;;;;;;0.52;0.40;;;;;;;10.08;55.82;98826.81;11319649;26;20348;-61
2024/04/16 16:32:02;;;;;;;0.85;0.50;;;;;;;10.09;56.23;98825.88;11317566;26;20010;-61
2024/04/16 16:37:05;;;;;;;1.75;0.65;;;;;;;10.14;56.47;98834.19;11284027;26;20003;-60
2024/04/16 16:42:09;;;;;;;0.55;0.55;;;;;;;10.08;56.02;98834.63;11316971;26;20009;-60
2024/04/16 16:47:12;;;;;;;1.02;0.38;;;;;;;10.11;56.22;98837.03;11311581;26;20006;-61
2024/04/16 16:52:17;;;;;;;0.50;0.50;;;;;;;9.98;56.33;98847.56;11312087;26;20006;-61
2024/04/16 16:57:20;;;;;;;0.45;0.45;;;;;;;9.79;56.53;98838.59;11314642;26;20006;-61
2024/04/16 17:02:23;;;;;;;0.60;0.60;;;;;;;9.48;56.85;98840.78;11310640;26;20003;-61
2024/04/16 17:07:26;;;;;;;0.30;0.30;;;;;;;9.50;57.29;98836.28;11314656;26;20009;-61
2024/04/16 17:12:29;;;;;;;0.52;0.30;;;;;;;9.38;57.37;98849.41;11313910;26;20500;-60
2024/04/16 17:17:32;;;;;;;0.40;0.40;;;;;;;9.26;57.18;98843.28;11317718;26;20003;-61
2024/04/16 17:22:35;;;;;;;1.10;0.47;;;;;;;9.27;58.22;98842.34;11319584;26;20966;-60
2024/04/16 17:27:38;;;;;;;0.20;0.20;;;;;;;9.32;58.05;98845.44;11318895;26;20298;-60
2024/04/16 17:32:43;;;;;;;0.30;0.30;;;;;;;9.29;58.25;98844.84;11320647;26;20373;-60
2024/04/16 17:37:46;;;;;;;0.50;0.50;;;;;;;9.32;57.97;98848.06;11321265;26;20017;-60
2024/04/16 17:42:49;;;;;;;1.25;0.95;;;;;;;9.15;58.95;98845.84;11318415;26;20029;-61
2024/04/16 17:47:51;;;;;;;0.40;0.40;;;;;;;8.88;59.37;98841.72;11318648;26;20537;-60
2024/04/16 17:52:55;;;;;;;0.70;0.60;;;;;;;8.76;59.63;98846.84;11319217;26;20775;-60
2024/04/16 17:57:57;;;;;;;1.08;0.60;;;;;;;8.63;60.21;98851.25;11283469;26;19998;-60
2024/04/16 18:03:05;;;;;;;0.60;0.60;;;;;;;8.32;60.89;98856.06;11318447;26;20513;-60
2024/04/16 18:08:08;;;;;;;0.88;0.85;;;;;;;8.25;60.75;98863.44;11328676;26;20002;-61
2024/04/16 18:13:13;;;;;;;1.67;0.60;;;;;;;8.39;60.47;98868.56;11327780;26;20575;-61
2024/04/16 18:18:15;;;;;;;0.65;0.50;;;;;;;8.53;60.35;98885.84;11317749;26;20010;-60
2024/04/16 18:23:19;;;;;;;0.68;0.68;;;;;;;8.57;60.09;98898.56;11318804;26;20003;-60
2024/04/16 18:28:22;;;;;;;1.02;0.80;;;;;;;8.49;59.83;98905.22;11352894;25;20502;-60
2024/04/16 18:33:25;;;;;;;0.45;0.45;;;;;;;8.58;60.06;98908.06;11322334;26;20017;-60
2024/04/16 18:38:29;;;;;;;0.88;0.85;;;;;;;8.64;60.17;98920.69;11294046;26;19998;-59
2024/04/16 18:43:33;;;;;;;0.80;0.70;;;;;;;8.58;59.83;98925.47;11327176;26;20025;-60
2024/04/16 18:48:35;;;;;;;0.52;0.52;;;;;;;8.54;60.23;98918.81;11327436;26;19998;-60
2024/04/16 18:53:38;;;;;;;1.02;0.70;;;;;;;8.45;60.22;98932.44;11328727;26;20094;-60
2024/04/16 18:58:41;;;;;;;1.75;1.30;;;;;;;8.26;60.67;98935.41;11311390;26;20025;-61
2024/04/16 19:03:43;;;;;;;1.77;1.30;;;;;;;8.21;60.99;98941.88;11330759;26;20010;-60
2024/04/16 19:08:46;;;;;;;1.88;1.40;;;;;;;8.26;61.41;98945.03;11296315;26;20067;-60
2024/04/16 19:13:50;;;;;;;1.25;0.90;;;;;;;8.28;61.30;98953.56;11324395;26;20061;-60
2024/04/16 19:18:53;;;;;;;1.00;0.75;;;;;;;8.28;61.12;98958.78;11312373;26;20037;-61
2024/04/16 19:23:57;;;;;;;0.73;0.73;;;;;;;8.27;61.59;98968.34;11320731;26;19998;-61
2024/04/16 19:29:00;;;;;;;0.88;0.73;;;;;;;8.32;61.39;98961.09;11323926;26;20410;-61
2024/04/16 19:34:04;;;;;;;1.88;0.90;;;;;;;8.36;61.29;98972.13;11324599;26;20006;-61
2024/04/16 19:39:08;;;;;;;2.83;0.80;;;;;;;8.33;61.43;98977.53;11328610;26;20002;-60
2024/04/16 19:44:11;;;;;;;2.75;0.82;;;;;;;8.39;61.38;98984.94;11328862;26;20034;-61
2024/04/16 19:49:14;;;;;;;0.70;0.70;;;;;;;8.35;61.60;98991.28;11325958;26;20392;-59
2024/04/16 19:54:17;;;;;;;1.23;1.00;;;;;;;8.34;61.26;99000.91;11325653;26;19998;-61
2024/04/16 19:59:20;;;;;;;1.17;0.82;;;;;;;8.25;61.76;99008.47;11323560;26;20068;-61
2024/04/16 20:04:24;;;;;;;1.58;0.90;;;;;;;8.23;61.74;99011.16;11326915;26;19994;-61
2024/04/16 20:09:28;;;;;;;1.27;0.90;;;;;;;8.32;61.83;99022.78;11295269;26;20017;-61
2024/04/16 20:14:36;;;;;;;1.65;1.00;;;;;;;8.40;61.53;99028.31;11328058;26;20009;-61
2024/04/16 20:19:40;;;;;;;1.30;0.90;;;;;;;8.38;61.64;99043.22;11307964;26;20002;-61
2024/04/16 20:24:46;;;;;;;2.13;1.23;;;;;;;8.37;61.97;99046.75;11324779;26;20431;-61
2024/04/16 20:29:54;;;;;;;1.95;1.30;;;;;;;8.50;61.62;99047.63;11326480;26;20038;-61
2024/04/16 20:34:58;;;;;;;1.23;1.00;;;;;;;8.51;61.49;99044.91;11327560;26;20008;-61
2024/04/16 20:40:02;;;;;;;1.80;1.33;;;;;;;8.57;61.27;99043.66;11324691;26;20002;-61
2024/04/16 20:45:07;;;;;;;1.77;1.30;;;;;;;8.61;61.33;99045.97;11327045;26;20017;-61
2024/04/16 20:50:10;;;;;;;4.32;1.25;;;;;;;8.54;61.41;99054.31;11326045;26;20091;-61
2024/04/16 20:55:14;;;;;;;1.38;1.15;;;;;;;8.51;61.91;99057.09;11324508;26;20046;-61
2024/04/16 21:00:19;;;;;;;2.67;1.30;;;;;;;8.60;61.95;99053.91;11325307;26;20521;-61
2024/04/16 21:05:22;;;;;;;1.85;1.30;;;;;;;8.72;61.80;99051.34;11326701;26;20008;-60
2024/04/16 21:10:26;;;;;;;2.85;1.25;;;;;;;8.68;61.29;99052.47;11325179;26;20450;-61
2024/04/16 21:15:29;;;;;;;1.58;1.20;;;;;;;8.58;61.71;99050.56;11324231;26;20442;-61
2024/04/16 21:20:33;;;;;;;2.13;1.25;;;;;;;8.50;62.01;99063.25;11325607;26;20006;-61
2024/04/16 21:25:37;;;;;;;1.77;1.20;;;;;;;8.36;61.75;99061.56;11324636;26;20002;-60
2024/04/16 21:30:40;;;;;;;3.50;1.48;;;;;;;8.14;62.03;99070.84;11324240;26;19998;-61
2024/04/16 21:35:43;;;;;;;2.63;1.50;;;;;;;8.01;62.44;99068.97;11322515;26;19994;-61
2024/04/16 21:40:46;;;;;;;2.80;1.60;;;;;;;7.91;62.33;99072.25;11322253;26;20482;-61
2024/04/16 21:45:48;;;;;;;3.00;1.98;;;;;;;7.80;62.67;99078.13;11326217;26;20017;-60
2024/04/16 21:50:51;;;;;;;3.35;1.95;;;;;;;7.85;62.65;99081.25;11323502;26;19998;-61
2024/04/16 21:55:54;;;;;;;4.55;2.03;;;;;;;7.90;62.49;99079.22;11325667;26;20049;-61
2024/04/16 22:00:57;;;;;;;4.50;2.53;;;;;;;7.96;62.64;99078.84;11323287;26;20030;-61
2024/04/16 22:06:01;;;;;;;3.45;2.22;;;;;;;8.05;62.22;99085.25;11323566;26;20420;-60
2024/04/16 22:11:03;;;;;;;5.15;2.92;;;;;;;8.04;62.38;99075.75;11324917;26;20610;-61
2024/04/16 22:16:06;;;;;;;3.45;2.15;;;;;;;8.06;62.30;99078.28;11324151;26;19998;-61
2024/04/16 22:21:09;;;;;;;4.57;2.58;;;;;;;8.02;62.51;99083.66;11323711;26;20080;-60
2024/04/16 22:26:12;;;;;;;3.78;2.40;;;;;;;8.03;62.36;99084.50;11322558;26;20034;-60
2024/04/16 22:31:14;;;;;;;4.13;2.28;;;;;;;7.99;62.78;99086.47;11322660;26;20013;-60
2024/04/16 22:36:17;;;;;;;6.53;2.83;;;;;;;7.92;62.34;99092.97;11322600;26;20327;-59
2024/04/16 22:41:23;;;;;;;3.60;2.40;;;;;;;7.97;62.43;99096.13;11288153;26;20006;-59
2024/04/16 22:46:26;;;;;;;4.10;2.70;;;;;;;7.93;62.75;99099.03;11290862;26;19998;-60
2024/04/16 22:51:29;;;;;;;4.68;2.85;;;;;;;7.95;63.18;99108.41;11324483;26;20013;-60
2024/04/16 22:56:31;;;;;;;4.65;3.10;;;;;;;8.05;62.95;99113.88;11330256;26;20002;-59
2024/04/16 23:01:34;;;;;;;4.47;2.90;;;;;;;8.18;62.65;99116.59;11330271;26;20006;-60
2024/04/16 23:06:36;;;;;;;5.95;2.42;;;;;;;8.27;62.05;99129.03;11327221;26;20030;-60
2024/04/16 23:11:39;;;;;;;3.60;2.20;;;;;;;8.31;62.19;99130.50;11297780;26;19998;-59
2024/04/16 23:16:42;;;;;;;3.30;1.90;;;;;;;8.27;62.45;99123.81;11330136;26;20450;-59
2024/04/16 23:21:45;;;;;;;2.90;1.80;;;;;;;8.16;62.50;99121.06;11329148;26;20023;-60
2024/04/16 23:26:47;;;;;;;3.13;1.98;;;;;;;8.12;62.78;99130.81;11329171;26;19998;-60
2024/04/16 23:31:50;;;;;;;2.70;1.48;;;;;;;8.11;62.40;99131.75;11329296;26;20006;-60
2024/04/16 23:36:53;;;;;;;2.55;1.50;;;;;;;8.06;62.18;99128.56;11326197;26;20013;-60
2024/04/16 23:41:55;;;;;;;1.92;1.40;;;;;;;8.08;62.46;99134.50;11329062;26;20002;-59